sensor_id;sensor_type;location;lat;lon;timestamp;pressure;altitude;pressure_sealevel;temperature;humidity
14800;BME280;7491;57.750;11.970;2023-04-07T00:01:21;78076.31;;;-142.11;100.00
14800;BME280;7491;57.750;11.970;2023-04-07T00:03:48;78094.66;;;-142.11;100.00
14800;BME280;7491;57.750;11.970;2023-04-07T00:06:14;78082.44;;;-142.11;100.00
14800;BME280;7491;57.750;11.970;2023-04-07T00:08:41;78082.44;;;-142.11;100.00
14800;BME280;7491;57.750;11.970;2023-04-07T00:11:07;78090.59;;;-142.11;100.00
14800;BME280;7491;57.750;11.970;2023-04-07T00:13:35;78104.88;;;-142.11;100.00
14800;BME280;7491;57.750;11.970;2023-04-07T00:16:02;78108.94;;;-142.11;100.00
14800;BME280;7491;57.750;11.970;2023-04-07T00:18:29;78115.06;;;-142.11;100.00
14800;BME280;7491;57.750;11.970;2023-04-07T00:20:56;78104.88;;;-142.11;100.00
14800;BME280;7491;57.750;11.970;2023-04-07T00:23:22;78119.16;;;-142.11;100.00
14800;BME280;7491;57.750;11.970;2023-04-07T00:25:49;78127.31;;;-142.11;100.00
14800;BME280;7491;57.750;11.970;2023-04-07T00:28:15;78125.28;;;-142.11;100.00
14800;BME280;7491;57.750;11.970;2023-04-07T00:30:43;78119.16;;;-142.11;100.00
14800;BME280;7491;57.750;11.970;2023-04-07T00:33:10;78119.16;;;-142.11;100.00
14800;BME280;7491;57.750;11.970;2023-04-07T00:35:37;78117.09;;;-142.11;100.00
14800;BME280;7491;57.750;11.970;2023-04-07T00:38:03;78113.03;;;-142.11;100.00
14800;BME280;7491;57.750;11.970;2023-04-07T00:40:30;78123.22;;;-142.11;100.00
14800;BME280;7491;57.750;11.970;2023-04-07T00:42:56;78125.28;;;-142.11;100.00
14800;BME280;7491;57.750;11.970;2023-04-07T00:45:23;78135.47;;;-142.11;100.00
14800;BME280;7491;57.750;11.970;2023-04-07T00:47:51;78133.44;;;-142.11;100.00
14800;BME280;7491;57.750;11.970;2023-04-07T00:50:19;78141.59;;;-142.11;100.00
14800;BME280;7491;57.750;11.970;2023-04-07T00:52:45;78139.53;;;-142.11;100.00
14800;BME280;7491;57.750;11.970;2023-04-07T00:55:12;78139.53;;;-142.11;100.00
14800;BME280;7491;57.750;11.970;2023-04-07T00:57:39;78141.59;;;-142.11;100.00
14800;BME280;7491;57.750;11.970;2023-04-07T01:00:06;78157.91;;;-142.11;100.00
14800;BME280;7491;57.750;11.970;2023-04-07T01:02:37;78151.78;;;-142.11;100.00
14800;BME280;7491;57.750;11.970;2023-04-07T01:05:14;78166.06;;;-142.11;100.00
14800;BME280;7491;57.750;11.970;2023-04-07T01:07:50;78168.09;;;-142.11;100.00
14800;BME280;7491;57.750;11.970;2023-04-07T01:10:26;78168.09;;;-142.11;100.00
14800;BME280;7491;57.750;11.970;2023-04-07T01:12:57;78172.19;;;-142.11;100.00
14800;BME280;7491;57.750;11.970;2023-04-07T01:15:29;78157.91;;;-142.11;100.00
14800;BME280;7491;57.750;11.970;2023-04-07T01:17:59;78155.84;;;-142.11;100.00
14800;BME280;7491;57.750;11.970;2023-04-07T01:20:31;78170.13;;;-142.11;100.00
14800;BME280;7491;57.750;11.970;2023-04-07T01:23:03;78182.38;;;-142.11;100.00
14800;BME280;7491;57.750;11.970;2023-04-07T01:25:42;78190.53;;;-142.11;100.00
14800;BME280;7491;57.750;11.970;2023-04-07T01:28:40;78178.31;;;-142.11;100.00
14800;BME280;7491;57.750;11.970;2023-04-07T01:31:13;78184.41;;;-142.11;100.00
14800;BME280;7491;57.750;11.970;2023-04-07T01:33:43;78190.53;;;-142.11;100.00
14800;BME280;7491;57.750;11.970;2023-04-07T01:36:10;78192.56;;;-142.11;100.00
14800;BME280;7491;57.750;11.970;2023-04-07T01:38:38;78202.78;;;-142.11;100.00
14800;BME280;7491;57.750;11.970;2023-04-07T01:41:06;78198.69;;;-142.11;100.00
14800;BME280;7491;57.750;11.970;2023-04-07T01:43:35;78206.84;;;-142.11;100.00
14800;BME280;7491;57.750;11.970;2023-04-07T01:46:04;78217.06;;;-142.11;100.00
14800;BME280;7491;57.750;11.970;2023-04-07T01:48:34;78223.16;;;-142.11;100.00
14800;BME280;7491;57.750;11.970;2023-04-07T01:51:02;78219.09;;;-142.11;100.00
14800;BME280;7491;57.750;11.970;2023-04-07T01:53:30;78215.00;;;-142.11;100.00
14800;BME280;7491;57.750;11.970;2023-04-07T01:55:57;78225.22;;;-142.11;100.00
14800;BME280;7491;57.750;11.970;2023-04-07T01:58:23;78223.16;;;-142.11;100.00
14800;BME280;7491;57.750;11.970;2023-04-07T02:00:51;78233.38;;;-142.11;100.00
14800;BME280;7491;57.750;11.970;2023-04-07T02:03:21;78227.25;;;-142.11;100.00
14800;BME280;7491;57.750;11.970;2023-04-07T02:05:54;78227.25;;;-142.11;100.00
14800;BME280;7491;57.750;11.970;2023-04-07T02:08:26;78243.56;;;-142.11;100.00
14800;BME280;7491;57.750;11.970;2023-04-07T02:10:54;78239.50;;;-142.11;100.00
14800;BME280;7491;57.750;11.970;2023-04-07T02:13:22;78233.38;;;-142.11;100.00
14800;BME280;7491;57.750;11.970;2023-04-07T02:15:50;78241.53;;;-142.11;100.00
14800;BME280;7491;57.750;11.970;2023-04-07T02:18:19;78247.66;;;-142.11;100.00
14800;BME280;7491;57.750;11.970;2023-04-07T02:20:47;78247.66;;;-142.11;100.00
14800;BME280;7491;57.750;11.970;2023-04-07T02:23:15;78243.56;;;-142.11;100.00
14800;BME280;7491;57.750;11.970;2023-04-07T02:25:42;78251.72;;;-142.11;100.00
14800;BME280;7491;57.750;11.970;2023-04-07T02:28:08;78259.88;;;-142.11;100.00
14800;BME280;7491;57.750;11.970;2023-04-07T02:30:35;78272.13;;;-142.11;100.00
14800;BME280;7491;57.750;11.970;2023-04-07T02:33:02;78261.94;;;-142.11;100.00
14800;BME280;7491;57.750;11.970;2023-04-07T02:35:29;78270.09;;;-142.11;100.00
14800;BME280;7491;57.750;11.970;2023-04-07T02:37:55;78261.94;;;-142.11;100.00
14800;BME280;7491;57.750;11.970;2023-04-07T02:40:23;78257.84;;;-142.11;100.00
14800;BME280;7491;57.750;11.970;2023-04-07T02:42:50;78261.94;;;-142.11;100.00
14800;BME280;7491;57.750;11.970;2023-04-07T02:45:16;78255.81;;;-142.11;100.00
14800;BME280;7491;57.750;11.970;2023-04-07T02:47:43;78247.66;;;-142.11;100.00
14800;BME280;7491;57.750;11.970;2023-04-07T02:50:10;78251.72;;;-142.11;100.00
14800;BME280;7491;57.750;11.970;2023-04-07T02:52:36;78247.66;;;-142.11;100.00
14800;BME280;7491;57.750;11.970;2023-04-07T02:55:04;78247.66;;;-142.11;100.00
14800;BME280;7491;57.750;11.970;2023-04-07T02:57:32;78241.53;;;-142.11;100.00
14800;BME280;7491;57.750;11.970;2023-04-07T02:59:59;78243.56;;;-142.11;100.00
14800;BME280;7491;57.750;11.970;2023-04-07T03:02:26;78249.69;;;-142.11;100.00
14800;BME280;7491;57.750;11.970;2023-04-07T03:04:52;78255.81;;;-142.11;100.00
14800;BME280;7491;57.750;11.970;2023-04-07T03:07:19;78255.81;;;-142.11;100.00
14800;BME280;7491;57.750;11.970;2023-04-07T03:09:45;78255.81;;;-142.11;100.00
14800;BME280;7491;57.750;11.970;2023-04-07T03:12:12;78276.22;;;-142.11;100.00
14800;BME280;7491;57.750;11.970;2023-04-07T03:14:40;78263.97;;;-142.11;100.00
14800;BME280;7491;57.750;11.970;2023-04-07T03:17:07;78266.00;;;-142.11;100.00
14800;BME280;7491;57.750;11.970;2023-04-07T03:19:33;78263.97;;;-142.11;100.00
14800;BME280;7491;57.750;11.970;2023-04-07T03:22:00;78266.00;;;-142.11;100.00
14800;BME280;7491;57.750;11.970;2023-04-07T03:24:26;78268.03;;;-142.11;100.00
14800;BME280;7491;57.750;11.970;2023-04-07T03:26:53;78263.97;;;-142.11;100.00
14800;BME280;7491;57.750;11.970;2023-04-07T03:29:21;78272.13;;;-142.11;100.00
14800;BME280;7491;57.750;11.970;2023-04-07T03:31:49;78266.00;;;-142.11;100.00
14800;BME280;7491;57.750;11.970;2023-04-07T03:34:16;78261.94;;;-142.11;100.00
14800;BME280;7491;57.750;11.970;2023-04-07T03:36:42;78270.09;;;-142.11;100.00
14800;BME280;7491;57.750;11.970;2023-04-07T03:39:09;78274.16;;;-142.11;100.00
14800;BME280;7491;57.750;11.970;2023-04-07T03:41:36;78284.38;;;-142.11;100.00
14800;BME280;7491;57.750;11.970;2023-04-07T03:44:02;78282.31;;;-142.11;100.00
14800;BME280;7491;57.750;11.970;2023-04-07T03:46:29;78282.31;;;-142.11;100.00
14800;BME280;7491;57.750;11.970;2023-04-07T03:48:57;78288.44;;;-142.11;100.00
14800;BME280;7491;57.750;11.970;2023-04-07T03:51:24;78286.41;;;-142.11;100.00
14800;BME280;7491;57.750;11.970;2023-04-07T03:53:52;78298.66;;;-142.11;100.00
14800;BME280;7491;57.750;11.970;2023-04-07T03:56:19;78300.69;;;-142.11;100.00
14800;BME280;7491;57.750;11.970;2023-04-07T03:58:45;78298.66;;;-142.11;100.00
14800;BME280;7491;57.750;11.970;2023-04-07T04:01:13;78292.53;;;-142.11;100.00
14800;BME280;7491;57.750;11.970;2023-04-07T04:03:39;78292.53;;;-142.11;100.00
14800;BME280;7491;57.750;11.970;2023-04-07T04:06:07;78294.56;;;-142.11;100.00
14800;BME280;7491;57.750;11.970;2023-04-07T04:08:34;78296.59;;;-142.11;100.00
14800;BME280;7491;57.750;11.970;2023-04-07T04:11:01;78296.59;;;-142.11;100.00
14800;BME280;7491;57.750;11.970;2023-04-07T04:13:27;78300.69;;;-142.11;100.00
14800;BME280;7491;57.750;11.970;2023-04-07T04:15:54;78304.75;;;-142.11;100.00
14800;BME280;7491;57.750;11.970;2023-04-07T04:18:21;78300.69;;;-142.11;100.00
14800;BME280;7491;57.750;11.970;2023-04-07T04:20:47;78314.97;;;-142.11;100.00
14800;BME280;7491;57.750;11.970;2023-04-07T04:23:16;78308.84;;;-142.11;100.00
14800;BME280;7491;57.750;11.970;2023-04-07T04:25:42;78319.03;;;-142.11;100.00
14800;BME280;7491;57.750;11.970;2023-04-07T04:28:09;78310.88;;;-142.11;100.00
14800;BME280;7491;57.750;11.970;2023-04-07T04:30:36;78314.97;;;-142.11;100.00
14800;BME280;7491;57.750;11.970;2023-04-07T04:33:02;78304.75;;;-142.11;100.00
14800;BME280;7491;57.750;11.970;2023-04-07T04:35:29;78308.84;;;-142.11;100.00
14800;BME280;7491;57.750;11.970;2023-04-07T04:37:56;78302.72;;;-142.11;100.00
14800;BME280;7491;57.750;11.970;2023-04-07T04:40:24;78308.84;;;-142.11;100.00
14800;BME280;7491;57.750;11.970;2023-04-07T04:42:50;78310.88;;;-142.11;100.00
14800;BME280;7491;57.750;11.970;2023-04-07T04:45:17;78306.81;;;-142.11;100.00
14800;BME280;7491;57.750;11.970;2023-04-07T04:47:44;78300.69;;;-142.11;100.00
14800;BME280;7491;57.750;11.970;2023-04-07T04:50:10;78300.69;;;-142.11;100.00
14800;BME280;7491;57.750;11.970;2023-04-07T04:52:37;78296.59;;;-142.11;100.00
14800;BME280;7491;57.750;11.970;2023-04-07T04:55:05;78296.59;;;-142.11;100.00
14800;BME280;7491;57.750;11.970;2023-04-07T04:57:33;78288.44;;;-142.11;100.00
14800;BME280;7491;57.750;11.970;2023-04-07T05:00:01;78288.44;;;-142.11;100.00
14800;BME280;7491;57.750;11.970;2023-04-07T05:02:28;78282.31;;;-142.11;100.00
14800;BME280;7491;57.750;11.970;2023-04-07T05:04:55;78284.38;;;-142.11;100.00
14800;BME280;7491;57.750;11.970;2023-04-07T05:07:21;78282.31;;;-142.11;100.00
14800;BME280;7491;57.750;11.970;2023-04-07T05:09:48;78276.22;;;-142.11;100.00
14800;BME280;7491;57.750;11.970;2023-04-07T05:12:15;78278.25;;;-142.11;100.00
14800;BME280;7491;57.750;11.970;2023-04-07T05:14:43;78274.16;;;-142.11;100.00
14800;BME280;7491;57.750;11.970;2023-04-07T05:17:09;78268.03;;;-142.11;100.00
14800;BME280;7491;57.750;11.970;2023-04-07T05:19:36;78263.97;;;-142.11;100.00
14800;BME280;7491;57.750;11.970;2023-04-07T05:22:03;78259.88;;;-142.11;100.00
14800;BME280;7491;57.750;11.970;2023-04-07T05:24:29;78141.59;;;-142.11;100.00
14800;BME280;7491;57.750;11.970;2023-04-07T05:26:56;78037.56;;;-142.11;100.00
14800;BME280;7491;57.750;11.970;2023-04-07T05:29:23;78049.81;;;-142.11;100.00
14800;BME280;7491;57.750;11.970;2023-04-07T05:31:51;77909.06;;;-142.11;100.00
14800;BME280;7491;57.750;11.970;2023-04-07T05:34:17;77662.28;;;-142.11;100.00
14800;BME280;7491;57.750;11.970;2023-04-07T05:36:44;77544.00;;;-142.11;100.00
14800;BME280;7491;57.750;11.970;2023-04-07T05:39:10;77527.69;;;-142.11;100.00
14800;BME280;7491;57.750;11.970;2023-04-07T05:41:37;77501.19;;;-142.11;100.00
14800;BME280;7491;57.750;11.970;2023-04-07T05:44:04;77599.06;;;-142.11;100.00
14800;BME280;7491;57.750;11.970;2023-04-07T05:46:31;77747.94;;;-142.11;100.00
14800;BME280;7491;57.750;11.970;2023-04-07T05:48:59;77823.41;;;-142.11;100.00
14800;BME280;7491;57.750;11.970;2023-04-07T05:51:26;77854.00;;;-142.11;100.00
14800;BME280;7491;57.750;11.970;2023-04-07T05:53:52;77870.31;;;-142.11;100.00
14800;BME280;7491;57.750;11.970;2023-04-07T05:56:19;77851.97;;;-142.11;100.00
14800;BME280;7491;57.750;11.970;2023-04-07T05:58:46;77880.50;;;-142.11;100.00
14800;BME280;7491;57.750;11.970;2023-04-07T06:01:13;77892.75;;;-142.11;100.00
14800;BME280;7491;57.750;11.970;2023-04-07T06:03:40;77945.78;;;-142.11;100.00
14800;BME280;7491;57.750;11.970;2023-04-07T06:06:08;77929.47;;;-142.11;100.00
14800;BME280;7491;57.750;11.970;2023-04-07T06:08:35;77937.63;;;-142.11;100.00
14800;BME280;7491;57.750;11.970;2023-04-07T06:11:02;77905.00;;;-142.11;100.00
14800;BME280;7491;57.750;11.970;2023-04-07T06:13:28;77915.19;;;-142.11;100.00
14800;BME280;7491;57.750;11.970;2023-04-07T06:15:55;77905.00;;;-142.11;100.00
14800;BME280;7491;57.750;11.970;2023-04-07T06:18:21;77905.00;;;-142.11;100.00
14800;BME280;7491;57.750;11.970;2023-04-07T06:20:48;77902.94;;;-142.11;100.00
14800;BME280;7491;57.750;11.970;2023-04-07T06:23:16;77892.75;;;-142.11;100.00
14800;BME280;7491;57.750;11.970;2023-04-07T06:25:43;77890.72;;;-142.11;100.00
14800;BME280;7491;57.750;11.970;2023-04-07T06:28:10;77911.09;;;-142.11;100.00
14800;BME280;7491;57.750;11.970;2023-04-07T06:30:37;77909.06;;;-142.11;100.00
14800;BME280;7491;57.750;11.970;2023-04-07T06:33:05;77890.72;;;-142.11;100.00
14800;BME280;7491;57.750;11.970;2023-04-07T06:35:31;77876.44;;;-142.11;100.00
14800;BME280;7491;57.750;11.970;2023-04-07T06:37:58;77862.16;;;-142.11;100.00
14800;BME280;7491;57.750;11.970;2023-04-07T06:40:26;77864.19;;;-142.11;100.00
14800;BME280;7491;57.750;11.970;2023-04-07T06:42:53;77880.50;;;-142.11;100.00
14800;BME280;7491;57.750;11.970;2023-04-07T06:45:20;77851.97;;;-142.11;100.00
14800;BME280;7491;57.750;11.970;2023-04-07T06:47:47;77866.25;;;-142.11;100.00
14800;BME280;7491;57.750;11.970;2023-04-07T06:50:14;77845.84;;;-142.11;100.00
14800;BME280;7491;57.750;11.970;2023-04-07T06:52:44;77860.13;;;-142.11;100.00
14800;BME280;7491;57.750;11.970;2023-04-07T06:55:11;77825.44;;;-142.11;100.00
14800;BME280;7491;57.750;11.970;2023-04-07T06:57:39;77835.66;;;-142.11;100.00
14800;BME280;7491;57.750;11.970;2023-04-07T07:00:07;77811.16;;;-142.11;100.00
14800;BME280;7491;57.750;11.970;2023-04-07T07:02:34;77772.41;;;-142.11;100.00
14800;BME280;7491;57.750;11.970;2023-04-07T07:05:01;77752.03;;;-142.11;100.00
14800;BME280;7491;57.750;11.970;2023-04-07T07:07:29;77737.75;;;-142.11;100.00
14800;BME280;7491;57.750;11.970;2023-04-07T07:09:55;77713.28;;;-142.11;100.00
14800;BME280;7491;57.750;11.970;2023-04-07T07:12:22;77737.75;;;-142.11;100.00
14800;BME280;7491;57.750;11.970;2023-04-07T07:14:50;77701.03;;;-142.11;100.00
14800;BME280;7491;57.750;11.970;2023-04-07T07:17:16;77688.81;;;-142.11;100.00
14800;BME280;7491;57.750;11.970;2023-04-07T07:19:43;77658.22;;;-142.11;100.00
14800;BME280;7491;57.750;11.970;2023-04-07T07:22:10;77668.41;;;-142.11;100.00
14800;BME280;7491;57.750;11.970;2023-04-07T07:24:36;77641.91;;;-142.11;100.00
14800;BME280;7491;57.750;11.970;2023-04-07T07:27:03;77641.91;;;-142.11;100.00
14800;BME280;7491;57.750;11.970;2023-04-07T07:29:30;77621.50;;;-142.11;100.00
14800;BME280;7491;57.750;11.970;2023-04-07T07:31:57;77613.34;;;-142.11;100.00
14800;BME280;7491;57.750;11.970;2023-04-07T07:34:24;77623.53;;;-142.11;100.00
14800;BME280;7491;57.750;11.970;2023-04-07T07:36:51;77625.59;;;-142.11;100.00
14800;BME280;7491;57.750;11.970;2023-04-07T07:39:17;77607.22;;;-142.11;100.00
14800;BME280;7491;57.750;11.970;2023-04-07T07:41:44;77597.03;;;-142.11;100.00
14800;BME280;7491;57.750;11.970;2023-04-07T07:44:11;77599.06;;;-142.11;100.00
14800;BME280;7491;57.750;11.970;2023-04-07T07:46:37;77599.06;;;-142.11;100.00
14800;BME280;7491;57.750;11.970;2023-04-07T07:49:05;77601.13;;;-142.11;100.00
14800;BME280;7491;57.750;11.970;2023-04-07T07:51:32;77574.59;;;-142.11;100.00
14800;BME280;7491;57.750;11.970;2023-04-07T07:53:59;77544.00;;;-142.11;100.00
14800;BME280;7491;57.750;11.970;2023-04-07T07:56:25;77566.44;;;-142.11;100.00
14800;BME280;7491;57.750;11.970;2023-04-07T07:58:52;77539.94;;;-142.11;100.00
14800;BME280;7491;57.750;11.970;2023-04-07T08:01:19;77539.94;;;-142.11;100.00
14800;BME280;7491;57.750;11.970;2023-04-07T08:03:45;77515.47;;;-142.11;100.00
14800;BME280;7491;57.750;11.970;2023-04-07T08:06:13;77503.22;;;-142.11;100.00
14800;BME280;7491;57.750;11.970;2023-04-07T08:08:40;77488.94;;;-142.11;100.00
14800;BME280;7491;57.750;11.970;2023-04-07T08:11:07;77495.06;;;-142.11;100.00
14800;BME280;7491;57.750;11.970;2023-04-07T08:13:34;77480.78;;;-142.11;100.00
14800;BME280;7491;57.750;11.970;2023-04-07T08:16:00;77454.28;;;-142.11;100.00
14800;BME280;7491;57.750;11.970;2023-04-07T08:18:27;77476.72;;;-142.11;100.00
14800;BME280;7491;57.750;11.970;2023-04-07T08:20:54;77478.75;;;-142.11;100.00
14800;BME280;7491;57.750;11.970;2023-04-07T08:23:23;77472.63;;;-142.11;100.00
14800;BME280;7491;57.750;11.970;2023-04-07T08:25:57;77444.09;;;-142.11;100.00
14800;BME280;7491;57.750;11.970;2023-04-07T08:31:39;77417.56;;;-142.11;100.00
14800;BME280;7491;57.750;11.970;2023-04-07T08:34:05;77407.38;;;-142.11;100.00
14800;BME280;7491;57.750;11.970;2023-04-07T08:37:06;77399.22;;;-142.11;100.00
14800;BME280;7491;57.750;11.970;2023-04-07T08:40:12;77413.50;;;-142.11;100.00
14800;BME280;7491;57.750;11.970;2023-04-07T08:42:52;77411.47;;;-142.11;98.26
14800;BME280;7491;57.750;11.970;2023-04-07T08:45:19;77407.38;;;-142.11;98.98
14800;BME280;7491;57.750;11.970;2023-04-07T08:47:56;77387.00;;;-142.11;98.59
14800;BME280;7491;57.750;11.970;2023-04-07T08:50:26;77382.91;;;-142.11;97.92
14800;BME280;7491;57.750;11.970;2023-04-07T08:53:30;77358.44;;;-142.11;98.79
14800;BME280;7491;57.750;11.970;2023-04-07T08:56:32;77327.84;;;-142.11;97.63
14800;BME280;7491;57.750;11.970;2023-04-07T08:58:59;77338.03;;;-142.11;96.84
14800;BME280;7491;57.750;11.970;2023-04-07T09:01:31;77327.84;;;-142.11;96.72
14800;BME280;7491;57.750;11.970;2023-04-07T09:04:01;77338.03;;;-142.11;96.88
14800;BME280;7491;57.750;11.970;2023-04-07T09:06:29;77344.16;;;-142.11;96.39
14800;BME280;7491;57.750;11.970;2023-04-07T09:08:56;77352.31;;;-142.11;95.65
14800;BME280;7491;57.750;11.970;2023-04-07T09:11:22;77372.72;;;-142.11;94.94
14800;BME280;7491;57.750;11.970;2023-04-07T09:13:51;77366.59;;;-142.11;96.57
14800;BME280;7491;57.750;11.970;2023-04-07T09:16:17;77327.84;;;-142.11;95.81
14800;BME280;7491;57.750;11.970;2023-04-07T09:18:44;77295.22;;;-142.11;96.91
14800;BME280;7491;57.750;11.970;2023-04-07T09:21:46;77276.88;;;-142.11;94.57
14800;BME280;7491;57.750;11.970;2023-04-07T09:24:20;77242.19;;;-142.11;95.62
14800;BME280;7491;57.750;11.970;2023-04-07T09:26:47;77215.69;;;-142.11;94.73
14800;BME280;7491;57.750;11.970;2023-04-07T09:29:18;77242.19;;;-142.11;94.28
14800;BME280;7491;57.750;11.970;2023-04-07T09:31:46;77225.88;;;-142.11;94.15
14800;BME280;7491;57.750;11.970;2023-04-07T09:34:23;77229.97;;;-142.11;93.78
14800;BME280;7491;57.750;11.970;2023-04-07T09:36:50;77256.47;;;-142.11;93.66
14800;BME280;7491;57.750;11.970;2023-04-07T09:39:17;77248.31;;;-142.11;94.01
14800;BME280;7491;57.750;11.970;2023-04-07T09:41:43;77248.31;;;-142.11;93.96
14800;BME280;7491;57.750;11.970;2023-04-07T09:44:10;77238.13;;;-142.11;94.25
14800;BME280;7491;57.750;11.970;2023-04-07T09:46:48;77225.88;;;-142.11;94.22
14800;BME280;7491;57.750;11.970;2023-04-07T09:49:15;77213.66;;;-142.11;93.96
14800;BME280;7491;57.750;11.970;2023-04-07T09:51:55;77225.88;;;-142.11;93.47
14800;BME280;7491;57.750;11.970;2023-04-07T09:54:33;77199.38;;;-142.11;94.97
14800;BME280;7491;57.750;11.970;2023-04-07T09:57:00;77236.09;;;-142.11;92.59
14800;BME280;7491;57.750;11.970;2023-04-07T09:59:27;77229.97;;;-142.11;92.77
14800;BME280;7491;57.750;11.970;2023-04-07T10:01:56;77250.38;;;-142.11;92.00
14800;BME280;7491;57.750;11.970;2023-04-07T10:04:23;77223.84;;;-142.11;91.69
14800;BME280;7491;57.750;11.970;2023-04-07T10:06:51;77201.41;;;-142.11;91.02
14800;BME280;7491;57.750;11.970;2023-04-07T10:09:19;77193.25;;;-142.11;92.82
14800;BME280;7491;57.750;11.970;2023-04-07T10:11:46;77191.22;;;-142.11;91.15
14800;BME280;7491;57.750;11.970;2023-04-07T10:14:14;77168.78;;;-142.11;92.27
14800;BME280;7491;57.750;11.970;2023-04-07T10:16:41;77172.88;;;-142.11;91.20
14800;BME280;7491;57.750;11.970;2023-04-07T10:19:10;77179.00;;;-142.11;90.85
14800;BME280;7491;57.750;11.970;2023-04-07T10:21:40;77146.38;;;-142.11;91.98
14800;BME280;7491;57.750;11.970;2023-04-07T10:24:21;77140.25;;;-142.11;90.84
14800;BME280;7491;57.750;11.970;2023-04-07T10:26:53;77148.41;;;-142.11;90.95
14800;BME280;7491;57.750;11.970;2023-04-07T10:29:23;77150.44;;;-142.11;90.91
14800;BME280;7491;57.750;11.970;2023-04-07T10:31:51;77128.00;;;-142.11;90.74
14800;BME280;7491;57.750;11.970;2023-04-07T10:37:24;77128.00;;;-142.11;90.06
14800;BME280;7491;57.750;11.970;2023-04-07T10:40:27;77117.81;;;-142.11;89.09
14800;BME280;7491;57.750;11.970;2023-04-07T10:43:02;77109.66;;;-142.11;90.18
14800;BME280;7491;57.750;11.970;2023-04-07T10:45:54;77111.69;;;-142.11;89.79
14800;BME280;7491;57.750;11.970;2023-04-07T10:48:29;77099.47;;;-142.11;89.66
14800;BME280;7491;57.750;11.970;2023-04-07T10:51:59;77105.59;;;-142.11;89.28
14800;BME280;7491;57.750;11.970;2023-04-07T12:22:12;76918.00;;;-142.11;83.66
14800;BME280;7491;57.750;11.970;2023-04-07T12:24:41;76924.13;;;-142.11;82.91
14800;BME280;7491;57.750;11.970;2023-04-07T12:27:08;76944.50;;;-142.11;82.05
14800;BME280;7491;57.750;11.970;2023-04-07T12:29:44;76932.28;;;-142.11;81.93
14800;BME280;7491;57.750;11.970;2023-04-07T12:35:10;76873.13;;;-142.11;82.42
14800;BME280;7491;57.750;11.970;2023-04-07T12:37:38;76881.28;;;-142.11;81.93
14800;BME280;7491;57.750;11.970;2023-04-07T12:40:06;76875.19;;;-142.11;82.76
14800;BME280;7491;57.750;11.970;2023-04-07T12:42:33;76867.03;;;-142.11;82.96
14800;BME280;7491;57.750;11.970;2023-04-07T12:45:00;76885.38;;;-142.11;82.38
14800;BME280;7491;57.750;11.970;2023-04-07T12:47:27;76887.41;;;-142.11;82.65
14800;BME280;7491;57.750;11.970;2023-04-07T12:49:54;76869.06;;;-142.11;83.15
14800;BME280;7491;57.750;11.970;2023-04-07T12:52:20;76871.09;;;-142.11;82.18
14800;BME280;7491;57.750;11.970;2023-04-07T12:54:49;76885.38;;;-142.11;82.34
14800;BME280;7491;57.750;11.970;2023-04-07T12:57:16;76875.19;;;-142.11;82.23
14800;BME280;7491;57.750;11.970;2023-04-07T12:59:43;76840.53;;;-142.11;82.81
14800;BME280;7491;57.750;11.970;2023-04-07T13:02:10;76809.94;;;-142.11;82.63
14800;BME280;7491;57.750;11.970;2023-04-07T13:04:37;76820.13;;;-142.11;82.42
14800;BME280;7491;57.750;11.970;2023-04-07T13:07:04;76842.56;;;-142.11;81.89
14800;BME280;7491;57.750;11.970;2023-04-07T13:09:32;76842.56;;;-142.11;81.79
14800;BME280;7491;57.750;11.970;2023-04-07T13:12:00;76848.66;;;-142.11;81.80
14800;BME280;7491;57.750;11.970;2023-04-07T13:14:28;76832.34;;;-142.11;82.01
14800;BME280;7491;57.750;11.970;2023-04-07T13:16:55;76862.94;;;-142.11;81.67
14800;BME280;7491;57.750;11.970;2023-04-07T13:19:22;76858.88;;;-142.11;81.83
14800;BME280;7491;57.750;11.970;2023-04-07T13:21:50;76858.88;;;-142.11;81.53
14800;BME280;7491;57.750;11.970;2023-04-07T13:24:17;76873.13;;;-142.11;80.46
14800;BME280;7491;57.750;11.970;2023-04-07T13:26:45;76873.13;;;-142.11;80.71
14800;BME280;7491;57.750;11.970;2023-04-07T13:29:15;76895.56;;;-142.11;80.31
14800;BME280;7491;57.750;11.970;2023-04-07T13:31:43;76883.34;;;-142.11;82.22
14800;BME280;7491;57.750;11.970;2023-04-07T13:34:10;76887.41;;;-142.11;82.08
14800;BME280;7491;57.750;11.970;2023-04-07T13:36:37;76893.53;;;-142.11;81.43
14800;BME280;7491;57.750;11.970;2023-04-07T13:39:04;76862.94;;;-142.11;82.62
14800;BME280;7491;57.750;11.970;2023-04-07T13:41:31;76864.97;;;-142.11;82.31
14800;BME280;7491;57.750;11.970;2023-04-07T13:43:58;76850.72;;;-142.11;81.68
14800;BME280;7491;57.750;11.970;2023-04-07T13:46:28;76836.44;;;-142.11;82.23
14800;BME280;7491;57.750;11.970;2023-04-07T13:48:55;76818.09;;;-142.11;82.04
14800;BME280;7491;57.750;11.970;2023-04-07T13:51:22;76809.94;;;-142.11;83.13
14800;BME280;7491;57.750;11.970;2023-04-07T13:53:49;76807.91;;;-142.11;82.27
14800;BME280;7491;57.750;11.970;2023-04-07T13:56:16;76803.81;;;-142.11;81.89
14800;BME280;7491;57.750;11.970;2023-04-07T13:58:43;76814.00;;;-142.11;82.68
14800;BME280;7491;57.750;11.970;2023-04-07T14:01:09;76811.97;;;-142.11;82.36
14800;BME280;7491;57.750;11.970;2023-04-07T14:03:38;76805.84;;;-142.11;82.48
14800;BME280;7491;57.750;11.970;2023-04-07T14:06:05;76809.94;;;-142.11;81.90
14800;BME280;7491;57.750;11.970;2023-04-07T14:08:31;76822.16;;;-142.11;81.12
14800;BME280;7491;57.750;11.970;2023-04-07T14:10:58;76848.66;;;-142.11;81.51
14800;BME280;7491;57.750;11.970;2023-04-07T14:13:25;76850.72;;;-142.11;82.00
14800;BME280;7491;57.750;11.970;2023-04-07T14:15:51;76854.78;;;-142.11;81.15
14800;BME280;7491;57.750;11.970;2023-04-07T14:18:40;76858.88;;;-142.11;81.75